Time;durP1;ratioP1;P1;durP2;ratioP2;P2;SDS_P1;SDS_P2;PMS_P1;PMS_P2;Temp;Humidity;BMP_temperature;BMP_pressure;BME280_temperature;BME280_humidity;BME280_pressure;Samples;Min_cycle;Max_cycle;Signal;HPM_P1;HPM_P2
2021/11/30 00:01:34;;;;;;;8.25;4.65;;;;;;;;;;10376392;28;20383;-80
2021/11/30 00:06:35;;;;;;;7.37;4.33;;;;;;;;;;10377431;28;20029;-80
2021/11/30 00:11:36;;;;;;;7.65;4.50;;;;;;;;;;10375250;28;20503;-81
2021/11/30 00:16:37;;;;;;;7.20;4.20;;;;;;;;;;10376833;28;20076;-79
2021/11/30 00:21:37;;;;;;;8.20;4.47;;;;;;;;;;10375544;28;20119;-80
2021/11/30 00:26:38;;;;;;;6.57;4.53;;;;;;;;;;10374536;28;20474;-80
2021/11/30 00:31:38;;;;;;;7.85;4.65;;;;;;;;;;10621254;22;20488;-81
2021/11/30 00:36:38;;;;;;;13.68;4.93;;;;;;;;;;10340083;28;20117;-81
2021/11/30 00:41:45;;;;;;;5.80;4.28;;;;;;;;;;10345662;28;20033;-80
2021/11/30 00:46:47;;;;;;;5.43;3.90;;;;;;;;;;10336311;28;20041;-81
2021/11/30 00:51:49;;;;;;;5.95;4.05;;;;;;;;;;10345231;28;20038;-81
2021/11/30 00:56:51;;;;;;;9.48;4.15;;;;;;;;;;10344731;28;20468;-81
2021/11/30 01:01:51;;;;;;;8.00;4.13;;;;;;;;;;10332626;28;20081;-81
2021/11/30 01:06:52;;;;;;;14.33;3.90;;;;;;;;;;10351921;28;20068;-81
2021/11/30 01:11:53;;;;;;;7.85;4.13;;;;;;;;;;10353487;28;20456;-80
2021/11/30 01:16:53;;;;;;;7.15;4.07;;;;;;;;;;10336771;28;20057;-80
2021/11/30 01:21:54;;;;;;;13.15;4.15;;;;;;;;;;10334410;28;20066;-81
2021/11/30 01:26:54;;;;;;;11.40;3.63;;;;;;;;;;10336894;28;20472;-81
2021/11/30 01:31:55;;;;;;;5.03;3.20;;;;;;;;;;10348114;28;20491;-81
2021/11/30 01:36:55;;;;;;;7.38;3.72;;;;;;;;;;10358786;28;20018;-81
2021/11/30 01:41:57;;;;;;;8.48;3.80;;;;;;;;;;10357788;28;20037;-81
2021/11/30 01:52:10;;;;;;;7.53;3.40;;;;;;;;;;10349401;28;20472;-81
2021/11/30 01:57:14;;;;;;;6.97;3.67;;;;;;;;;;10340999;28;20053;-81
2021/11/30 02:02:15;;;;;;;6.13;3.50;;;;;;;;;;10346523;28;20164;-81
2021/11/30 02:07:15;;;;;;;4.95;3.55;;;;;;;;;;10341770;28;20027;-80
2021/11/30 02:12:16;;;;;;;6.10;3.45;;;;;;;;;;10339309;28;20027;-80
2021/11/30 02:17:16;;;;;;;6.95;3.30;;;;;;;;;;10331200;28;20117;-81
2021/11/30 02:22:17;;;;;;;5.75;3.30;;;;;;;;;;10334846;28;20089;-82
2021/11/30 02:27:19;;;;;;;5.03;2.90;;;;;;;;;;10332336;28;20085;-80
2021/11/30 02:32:20;;;;;;;4.88;3.60;;;;;;;;;;10349442;28;20502;-81
2021/11/30 02:37:26;;;;;;;5.13;3.45;;;;;;;;;;10348291;28;20050;-80
2021/11/30 02:42:26;;;;;;;3.70;3.10;;;;;;;;;;10337475;28;20041;-80
2021/11/30 02:47:27;;;;;;;6.80;3.60;;;;;;;;;;10342383;28;20037;-81
2021/11/30 02:52:28;;;;;;;6.63;3.00;;;;;;;;;;10355773;28;20840;-81
2021/11/30 02:57:29;;;;;;;5.68;3.13;;;;;;;;;;10355465;28;20019;-82
2021/11/30 03:02:29;;;;;;;4.77;3.13;;;;;;;;;;10346819;28;20034;-82
2021/11/30 03:07:35;;;;;;;7.10;3.35;;;;;;;;;;10358927;28;20907;-82
2021/11/30 03:12:36;;;;;;;4.20;3.05;;;;;;;;;;10340440;28;20072;-81
2021/11/30 03:17:37;;;;;;;6.22;3.47;;;;;;;;;;10359638;28;20468;-82
2021/11/30 03:22:38;;;;;;;4.93;3.45;;;;;;;;;;10342520;28;20037;-81
2021/11/30 03:27:39;;;;;;;3.45;2.80;;;;;;;;;;10349128;28;20037;-81
2021/11/30 03:37:58;;;;;;;;;;;;;;;;;;10339310;28;20042;-80
2021/11/30 03:42:58;;;;;;;5.53;2.80;;;;;;;;;;10345880;28;19914;-80
2021/11/30 03:47:59;;;;;;;3.80;2.90;;;;;;;;;;10330492;28;20041;-81
2021/11/30 03:52:59;;;;;;;4.40;3.00;;;;;;;;;;10343814;28;20472;-80
2021/11/30 03:58:00;;;;;;;5.87;3.40;;;;;;;;;;10342759;28;20022;-81
2021/11/30 04:03:00;;;;;;;5.13;3.15;;;;;;;;;;10335536;28;20460;-81
2021/11/30 04:08:01;;;;;;;3.88;3.00;;;;;;;;;;10351800;28;20030;-81
2021/11/30 04:13:01;;;;;;;4.53;2.90;;;;;;;;;;10338739;28;20033;-81
2021/11/30 04:18:02;;;;;;;3.60;2.80;;;;;;;;;;10338121;28;20457;-81
2021/11/30 04:23:03;;;;;;;3.85;2.92;;;;;;;;;;10352250;28;20037;-80
2021/11/30 04:28:03;;;;;;;5.57;2.90;;;;;;;;;;10348393;28;20061;-81
2021/11/30 04:33:04;;;;;;;6.30;2.90;;;;;;;;;;10338653;28;20129;-81
2021/11/30 04:38:04;;;;;;;4.03;2.70;;;;;;;;;;10334286;28;20492;-82
2021/11/30 04:43:08;;;;;;;4.20;3.00;;;;;;;;;;10339673;28;20408;-80
2021/11/30 04:48:08;;;;;;;5.13;3.03;;;;;;;;;;10350693;28;20022;-81
2021/11/30 04:53:09;;;;;;;3.33;2.77;;;;;;;;;;10334932;28;20030;-81
2021/11/30 04:58:09;;;;;;;4.05;2.70;;;;;;;;;;10332757;28;20448;-80
2021/11/30 05:03:10;;;;;;;4.53;2.80;;;;;;;;;;10346698;28;20042;-80
2021/11/30 05:08:11;;;;;;;3.78;2.80;;;;;;;;;;10335935;28;20041;-81
2021/11/30 05:13:11;;;;;;;4.15;2.30;;;;;;;;;;10345570;28;20165;-80
2021/11/30 05:18:11;;;;;;;5.03;2.70;;;;;;;;;;10315229;28;20035;-80
2021/11/30 05:23:14;;;;;;;4.13;2.70;;;;;;;;;;10355881;28;20038;-81
2021/11/30 05:28:15;;;;;;;4.38;2.50;;;;;;;;;;10343156;28;20041;-80
2021/11/30 05:33:15;;;;;;;3.15;2.50;;;;;;;;;;10346956;28;20476;-80
2021/11/30 05:38:16;;;;;;;4.22;2.65;;;;;;;;;;10336476;28;20433;-80
2021/11/30 05:43:17;;;;;;;3.13;2.38;;;;;;;;;;10339698;28;20384;-80
2021/11/30 05:48:17;;;;;;;6.05;2.75;;;;;;;;;;10333759;28;20460;-80
2021/11/30 05:53:17;;;;;;;4.43;2.60;;;;;;;;;;10340915;28;20030;-82
2021/11/30 05:58:18;;;;;;;5.00;2.88;;;;;;;;;;10333029;28;20476;-80
2021/11/30 06:04:19;;;;;;;3.17;2.42;;;;;;;;;;10338033;28;20401;-81
2021/11/30 06:08:49;;;;;;;2.67;2.40;;;;;;;;;;10332367;28;20034;-80
2021/11/30 06:13:50;;;;;;;2.17;2.00;;;;;;;;;;10352907;28;20113;-81
2021/11/30 06:18:51;;;;;;;6.80;2.38;;;;;;;;;;10361217;28;20113;-80
2021/11/30 06:23:51;;;;;;;3.25;2.47;;;;;;;;;;10313071;28;20105;-85
2021/11/30 06:28:51;;;;;;;3.17;2.10;;;;;;;;;;10341282;28;20046;-84
2021/11/30 06:33:52;;;;;;;3.00;2.20;;;;;;;;;;10339828;28;20041;-82
2021/11/30 06:38:55;;;;;;;3.67;2.27;;;;;;;;;;10339819;28;20851;-84
2021/11/30 06:43:55;;;;;;;3.63;2.20;;;;;;;;;;10360582;28;20509;-83
2021/11/30 06:48:55;;;;;;;4.15;2.20;;;;;;;;;;10347219;28;20023;-83
2021/11/30 06:53:56;;;;;;;4.83;2.80;;;;;;;;;;10351329;28;20097;-83
2021/11/30 06:58:56;;;;;;;3.03;2.40;;;;;;;;;;10342893;28;20456;-83
2021/11/30 07:03:58;;;;;;;3.65;2.88;;;;;;;;;;10346441;28;20062;-83
2021/11/30 07:14:17;;;;;;;;;;;;;;;;;;10348751;28;20038;-81
2021/11/30 07:19:18;;;;;;;6.93;3.03;;;;;;;;;;10344814;28;19913;-96
2021/11/30 07:24:18;;;;;;;13.27;4.18;;;;;;;;;;10361438;28;20112;-96
2021/11/30 08:51:49;;;;;;;5.60;2.95;;;;;;;;;;11933946;23;20134;-95
2021/11/30 08:56:50;;;;;;;9.52;3.05;;;;;;;;;;10325847;28;20039;-96
2021/11/30 09:01:51;;;;;;;7.70;3.38;;;;;;;;;;10334238;28;20030;-96
2021/11/30 09:06:52;;;;;;;7.90;2.83;;;;;;;;;;10339883;28;20041;-96
2021/11/30 09:11:52;;;;;;;3.80;2.95;;;;;;;;;;10350233;28;20033;-96
2021/11/30 10:42:45;;;;;;;7.95;3.10;;;;;;;;;;10960000;22;20074;-96
2021/11/30 10:47:45;;;;;;;6.47;2.55;;;;;;;;;;10340525;28;20030;-94
2021/11/30 10:52:46;;;;;;;8.40;2.70;;;;;;;;;;10331879;28;20033;-94
2021/11/30 10:57:48;;;;;;;3.53;2.70;;;;;;;;;;10322709;28;20938;-96
2021/11/30 11:03:01;;;;;;;6.50;2.78;;;;;;;;;;10319839;28;20029;-95
2021/11/30 11:08:09;;;;;;;3.75;2.65;;;;;;;;;;10324377;28;20049;-95
2021/11/30 11:13:25;;;;;;;6.40;2.75;;;;;;;;;;10337775;28;20046;-95
2021/11/30 11:18:28;;;;;;;4.07;2.80;;;;;;;;;;10341891;28;20045;-95
2021/11/30 11:23:28;;;;;;;3.80;2.50;;;;;;;;;;10338213;28;20027;-94
2021/11/30 11:28:29;;;;;;;3.23;2.50;;;;;;;;;;10338396;28;20030;-95
2021/11/30 11:33:29;;;;;;;3.50;2.67;;;;;;;;;;10363590;28;20478;-94
2021/11/30 11:38:32;;;;;;;3.20;2.77;;;;;;;;;;10352174;28;20026;-94
2021/11/30 11:43:34;;;;;;;3.47;2.58;;;;;;;;;;10351889;28;20899;-95
2021/11/30 11:48:34;;;;;;;6.90;2.65;;;;;;;;;;10325151;28;20108;-95
2021/11/30 11:53:57;;;;;;;6.10;3.10;;;;;;;;;;10331030;28;20072;-95
2021/11/30 11:59:19;;;;;;;3.65;2.40;;;;;;;;;;10356840;28;20424;-94
2021/11/30 12:04:20;;;;;;;5.15;2.40;;;;;;;;;;10335449;28;20026;-95
2021/11/30 12:09:30;;;;;;;5.00;2.50;;;;;;;;;;10327292;28;20053;-94
2021/11/30 12:14:43;;;;;;;3.60;2.47;;;;;;;;;;10329411;28;20539;-95
2021/11/30 12:20:03;;;;;;;3.25;2.38;;;;;;;;;;10350365;28;20067;-94
2021/11/30 12:25:04;;;;;;;5.03;2.58;;;;;;;;;;10316169;28;20049;-90
2021/11/30 12:30:05;;;;;;;3.30;2.47;;;;;;;;;;10529035;22;20528;-78
2021/11/30 12:35:09;;;;;;;2.78;2.15;;;;;;;;;;10305973;28;20033;-77
2021/11/30 12:40:16;;;;;;;2.70;2.05;;;;;;;;;;10292902;28;20085;-79
2021/11/30 12:45:39;;;;;;;3.50;2.50;;;;;;;;;;10296774;28;20031;-78
2021/11/30 12:50:39;;;;;;;3.40;2.35;;;;;;;;;;10295167;28;20358;-81
2021/11/30 12:55:45;;;;;;;3.37;2.30;;;;;;;;;;10294694;28;20038;-81
2021/11/30 13:01:23;;;;;;;4.22;2.33;;;;;;;;;;10296084;28;20437;-81
2021/11/30 13:06:23;;;;;;;3.03;2.40;;;;;;;;;;10292345;28;20034;-81
2021/11/30 13:11:27;;;;;;;3.80;2.40;;;;;;;;;;10305260;28;20023;-80
2021/11/30 13:16:27;;;;;;;3.85;2.10;;;;;;;;;;10305081;28;20457;-80
2021/11/30 13:21:35;;;;;;;2.70;2.40;;;;;;;;;;10292453;28;20158;-80
2021/11/30 13:26:36;;;;;;;4.18;2.20;;;;;;;;;;10298131;28;20034;-80
2021/11/30 13:31:39;;;;;;;3.50;1.80;;;;;;;;;;10292600;28;20046;-80
2021/11/30 13:36:40;;;;;;;2.88;2.00;;;;;;;;;;10282036;28;20045;-80
2021/11/30 13:41:40;;;;;;;4.68;2.30;;;;;;;;;;10299980;28;20539;-80
2021/11/30 13:46:44;;;;;;;3.95;2.10;;;;;;;;;;10296923;28;20033;-80
2021/11/30 13:51:45;;;;;;;3.80;2.25;;;;;;;;;;10287094;28;20027;-79
2021/11/30 13:57:09;;;;;;;2.80;2.00;;;;;;;;;;10302138;28;20469;-79
2021/11/30 14:02:10;;;;;;;3.58;2.20;;;;;;;;;;10304875;28;20577;-78
2021/11/30 14:07:10;;;;;;;3.40;2.10;;;;;;;;;;10303891;28;20477;-81
2021/11/30 14:12:12;;;;;;;5.20;2.20;;;;;;;;;;10280925;28;20038;-79
2021/11/30 14:17:25;;;;;;;4.50;2.50;;;;;;;;;;10318005;28;20495;-80
2021/11/30 14:22:34;;;;;;;3.08;2.10;;;;;;;;;;10312300;28;20039;-79
2021/11/30 14:27:39;;;;;;;;;;;;;;;;;;10303593;28;20034;-80
2021/11/30 14:32:40;;;;;;;2.28;1.67;;;;;;;;;;10292886;28;19917;-80
2021/11/30 14:37:49;;;;;;;6.18;1.90;;;;;;;;;;10292280;28;20097;-81
2021/11/30 14:42:59;;;;;;;;;;;;;;;;;;10294683;28;20097;-80
2021/11/30 14:48:08;;;;;;;2.20;1.70;;;;;;;;;;10309279;28;19918;-80
2021/11/30 14:53:18;;;;;;;3.60;2.00;;;;;;;;;;10323403;28;20049;-79
2021/11/30 14:58:21;;;;;;;3.22;1.77;;;;;;;;;;10319829;28;20033;-79
2021/11/30 15:03:57;;;;;;;6.25;1.80;;;;;;;;;;10323796;28;20042;-80
2021/11/30 15:09:00;;;;;;;4.38;2.00;;;;;;;;;;10322560;28;20041;-79
2021/11/30 15:14:07;;;;;;;9.77;2.17;;;;;;;;;;10304671;28;20038;-79
2021/11/30 15:19:19;;;;;;;2.60;1.73;;;;;;;;;;10317503;28;20101;-81
2021/11/30 15:24:21;;;;;;;5.60;2.20;;;;;;;;;;10298625;28;20032;-80
2021/11/30 15:29:25;;;;;;;2.13;1.92;;;;;;;;;;10316236;28;20047;-80
2021/11/30 15:34:26;;;;;;;3.13;1.80;;;;;;;;;;10313802;28;20508;-81
2021/11/30 15:39:26;;;;;;;3.55;2.10;;;;;;;;;;10315260;28;20449;-82
2021/11/30 15:44:27;;;;;;;1.98;1.60;;;;;;;;;;10314078;28;20026;-82
2021/11/30 15:49:28;;;;;;;3.58;2.00;;;;;;;;;;10320833;28;20437;-81
2021/11/30 15:54:30;;;;;;;6.82;2.05;;;;;;;;;;10296663;28;20174;-82
2021/11/30 15:59:30;;;;;;;4.68;1.90;;;;;;;;;;10316660;28;20073;-82
2021/11/30 16:04:32;;;;;;;3.75;2.00;;;;;;;;;;10306844;28;20062;-82
2021/11/30 16:09:33;;;;;;;4.47;1.80;;;;;;;;;;10312154;28;20035;-82
2021/11/30 16:14:34;;;;;;;4.70;1.92;;;;;;;;;;10317381;28;20031;-81
2021/11/30 16:19:35;;;;;;;7.32;2.00;;;;;;;;;;10310006;28;20377;-82
2021/11/30 16:24:36;;;;;;;6.30;2.88;;;;;;;;;;10294983;28;20030;-82
2021/11/30 16:29:36;;;;;;;2.05;1.85;;;;;;;;;;10294438;28;20109;-81
2021/11/30 16:34:37;;;;;;;3.35;2.17;;;;;;;;;;10307529;28;20031;-82
2021/11/30 16:39:37;;;;;;;4.75;2.40;;;;;;;;;;10297308;28;20031;-81
2021/11/30 16:44:38;;;;;;;3.95;2.03;;;;;;;;;;10305764;28;20077;-81
2021/11/30 16:49:38;;;;;;;6.33;2.40;;;;;;;;;;10307477;28;20026;-82
2021/11/30 16:54:39;;;;;;;8.77;2.53;;;;;;;;;;10298185;28;20935;-80
2021/11/30 16:59:39;;;;;;;9.40;2.83;;;;;;;;;;10302207;28;20441;-80
2021/11/30 17:04:42;;;;;;;7.53;2.65;;;;;;;;;;10293777;28;20488;-81
2021/11/30 17:09:42;;;;;;;7.55;2.97;;;;;;;;;;10292679;28;20061;-81
2021/11/30 17:14:43;;;;;;;6.50;3.08;;;;;;;;;;10293517;28;20456;-81
2021/11/30 17:19:43;;;;;;;3.63;2.50;;;;;;;;;;10293345;28;20030;-81
2021/11/30 17:24:53;;;;;;;4.03;2.60;;;;;;;;;;10306296;28;20380;-81
2021/11/30 17:29:54;;;;;;;5.88;2.95;;;;;;;;;;10307042;28;20478;-82
2021/11/30 17:34:54;;;;;;;4.10;2.80;;;;;;;;;;10296593;28;20030;-84
2021/11/30 17:39:56;;;;;;;5.40;2.70;;;;;;;;;;10309347;28;20105;-81
2021/11/30 17:44:56;;;;;;;4.78;3.25;;;;;;;;;;10286563;28;20453;-82
2021/11/30 17:49:57;;;;;;;7.95;3.22;;;;;;;;;;10300253;28;20113;-81
2021/11/30 17:54:57;;;;;;;7.97;3.30;;;;;;;;;;10301047;28;20523;-81
2021/11/30 17:59:57;;;;;;;5.15;3.58;;;;;;;;;;10286119;28;20449;-82
2021/11/30 18:04:58;;;;;;;8.77;3.28;;;;;;;;;;10297009;28;20518;-81
2021/11/30 18:09:59;;;;;;;5.68;3.35;;;;;;;;;;10311147;28;20465;-82
2021/11/30 18:14:59;;;;;;;5.72;2.83;;;;;;;;;;10315888;28;20038;-81
2021/11/30 18:20:00;;;;;;;6.78;3.28;;;;;;;;;;10308793;28;20030;-85
2021/11/30 18:25:00;;;;;;;9.98;3.80;;;;;;;;;;10305022;28;20449;-80
2021/11/30 18:30:01;;;;;;;7.68;3.28;;;;;;;;;;10304379;28;20461;-81
2021/11/30 18:35:02;;;;;;;5.80;3.80;;;;;;;;;;10327773;28;20039;-82
2021/11/30 18:40:05;;;;;;;5.65;3.45;;;;;;;;;;10301611;28;20035;-82
2021/11/30 18:45:07;;;;;;;5.20;3.70;;;;;;;;;;10292842;28;20390;-81
2021/11/30 18:50:07;;;;;;;7.05;3.70;;;;;;;;;;10301149;28;20058;-82
2021/11/30 18:55:08;;;;;;;6.75;3.45;;;;;;;;;;10313225;28;20450;-82
2021/11/30 19:00:12;;;;;;;9.90;4.00;;;;;;;;;;10314146;28;20086;-82
2021/11/30 19:05:14;;;;;;;9.00;4.07;;;;;;;;;;10311063;28;20042;-83
2021/11/30 19:10:14;;;;;;;6.45;3.70;;;;;;;;;;10308388;28;20035;-81
2021/11/30 19:15:15;;;;;;;10.25;4.05;;;;;;;;;;10299938;28;20037;-81
2021/11/30 19:20:16;;;;;;;6.15;3.97;;;;;;;;;;10293250;28;20038;-82
2021/11/30 19:25:16;;;;;;;6.05;3.80;;;;;;;;;;10298495;28;20039;-81
2021/11/30 19:30:17;;;;;;;12.00;4.20;;;;;;;;;;10332719;28;20180;-81
2021/11/30 19:35:17;;;;;;;15.70;4.68;;;;;;;;;;10314267;28;20963;-82
2021/11/30 19:40:19;;;;;;;9.70;3.83;;;;;;;;;;10322199;28;20124;-81
2021/11/30 19:45:21;;;;;;;9.85;4.35;;;;;;;;;;10313081;28;20986;-80
2021/11/30 19:50:23;;;;;;;8.95;4.72;;;;;;;;;;10304032;28;20109;-80
2021/11/30 19:55:23;;;;;;;9.32;4.82;;;;;;;;;;10294165;28;20039;-80
2021/11/30 20:00:27;;;;;;;6.78;4.30;;;;;;;;;;10319258;28;20034;-80
2021/11/30 20:17:26;;;;;;;10.38;4.25;;;;;;;;;;10551618;27;21158;-81
2021/11/30 20:22:27;;;;;;;10.90;4.82;;;;;;;;;;10553221;28;20040;-78
2021/11/30 20:27:27;;;;;;;17.67;5.30;;;;;;;;;;10569869;28;20103;-79
2021/11/30 20:32:28;;;;;;;10.88;4.72;;;;;;;;;;10550078;28;20028;-81
2021/11/30 20:42:47;;;;;;;10.18;4.80;;;;;;;;;;10570688;28;20099;-79
2021/11/30 20:47:47;;;;;;;7.83;4.10;;;;;;;;;;10569566;28;20110;-79
2021/11/30 20:52:48;;;;;;;6.82;4.20;;;;;;;;;;10548419;28;20449;-79
2021/11/30 20:57:48;;;;;;;10.50;4.37;;;;;;;;;;10553393;28;20026;-79
2021/11/30 21:02:49;;;;;;;7.70;4.37;;;;;;;;;;10559773;28;20449;-79
2021/11/30 21:07:49;;;;;;;10.23;4.43;;;;;;;;;;10566444;28;20063;-78
2021/11/30 21:12:52;;;;;;;8.85;4.50;;;;;;;;;;10569965;28;20042;-78
2021/11/30 21:17:55;;;;;;;8.40;4.45;;;;;;;;;;10545722;28;20077;-78
2021/11/30 21:22:57;;;;;;;5.85;4.10;;;;;;;;;;10541040;28;20020;-79
2021/11/30 21:27:59;;;;;;;8.45;4.88;;;;;;;;;;10539354;28;20024;-79
2021/11/30 21:33:00;;;;;;;5.88;4.30;;;;;;;;;;10542773;28;20035;-78
2021/11/30 21:38:01;;;;;;;7.38;4.40;;;;;;;;;;10540574;28;20029;-79
2021/11/30 21:43:03;;;;;;;7.45;4.30;;;;;;;;;;10541177;28;20038;-78
2021/11/30 21:48:04;;;;;;;6.93;4.45;;;;;;;;;;10541118;28;20038;-78
2021/11/30 21:53:05;;;;;;;7.38;4.60;;;;;;;;;;10528445;28;20039;-78
2021/11/30 21:58:05;;;;;;;7.70;4.30;;;;;;;;;;10542225;28;20361;-79
2021/11/30 22:03:06;;;;;;;8.07;4.40;;;;;;;;;;10537962;28;20453;-78
2021/11/30 22:08:07;;;;;;;9.05;4.55;;;;;;;;;;10540254;28;20095;-79
2021/11/30 22:13:09;;;;;;;7.78;5.00;;;;;;;;;;10536701;28;20047;-79
2021/11/30 22:18:09;;;;;;;5.80;4.32;;;;;;;;;;10538109;28;20035;-79
2021/11/30 22:23:10;;;;;;;10.88;4.47;;;;;;;;;;10534546;28;20367;-79
2021/11/30 22:28:10;;;;;;;10.98;4.57;;;;;;;;;;10536608;28;20471;-78
2021/11/30 22:33:11;;;;;;;6.17;4.27;;;;;;;;;;10533925;28;20379;-78
2021/11/30 22:38:11;;;;;;;5.90;4.68;;;;;;;;;;10533849;28;20441;-78
2021/11/30 22:43:12;;;;;;;7.43;4.70;;;;;;;;;;10534670;28;20047;-79
2021/11/30 22:48:12;;;;;;;11.80;5.13;;;;;;;;;;10533902;28;20032;-77
2021/11/30 22:53:13;;;;;;;11.85;5.03;;;;;;;;;;10515842;28;20048;-77
2021/11/30 22:58:13;;;;;;;9.10;4.90;;;;;;;;;;10530025;28;20467;-76
2021/11/30 23:03:14;;;;;;;11.30;5.20;;;;;;;;;;10503394;28;20548;-78
2021/11/30 23:08:15;;;;;;;10.20;5.43;;;;;;;;;;10515159;28;20484;-78
2021/11/30 23:13:17;;;;;;;9.90;5.15;;;;;;;;;;10511103;28;20044;-81
2021/11/30 23:18:18;;;;;;;11.15;5.65;;;;;;;;;;10517547;28;20024;-78
2021/11/30 23:23:26;;;;;;;12.52;5.05;;;;;;;;;;10523293;28;20039;-79
2021/11/30 23:28:27;;;;;;;8.15;5.88;;;;;;;;;;10522966;28;20024;-80
2021/11/30 23:33:32;;;;;;;13.65;5.20;;;;;;;;;;10522307;28;20438;-79
2021/11/30 23:38:34;;;;;;;11.02;5.68;;;;;;;;;;10522758;28;20036;-79
2021/11/30 23:43:35;;;;;;;8.82;5.05;;;;;;;;;;10520318;28;20093;-79
2021/11/30 23:48:35;;;;;;;9.65;5.40;;;;;;;;;;10521378;28;20348;-78
2021/11/30 23:53:36;;;;;;;9.52;5.28;;;;;;;;;;10503129;28;20082;-78
2021/11/30 23:58:37;;;;;;;7.10;4.50;;;;;;;;;;10500620;28;20077;-78
